Terminal Aerodrome Forecast
Issued by NWS Twin Cities, MN

Home | Current Version | Previous Version | Text Only | Print | Product List | Glossary On
Versions: 1 2 3 4 5 6 7 8 9 10 11 12 13 14 15 16 17 18 19 20 21 22 23 24 25 26 27
000
FTUS43 KMPX 212300
TAFMSP
TAF
KMSP 212334Z 2200/2306 13009KT P6SM SKC
     FM221400 14015G21KT P6SM SCT050 BKN150
     FM222100 15014G20KT P6SM BKN050 OVC120
     FM230200 15011KT P6SM OVC045 PROB30 2302/2306 5SM -SHRA=

USA.gov is the U.S. government's official web portal to all federal, state and local government web resources and services.